Home > Products > Valid Products > MTR

000
SAZS31 NSTU 032113
MTRPPG
METAR NSTU 032050Z 13010KT 12SM FEW024 29/23 A3001 RMK SLP164 8/100
T02870228 52008=




000
SAZS31 NSTU 031954
MTRPPG
METAR NSTU 031950Z 13009KT 12SM SCT023 27/23 A3001 RMK SLP164
T02680226=




000
SAZS31 NSTU 031954
MTRPPG
METAR NSTU 031950Z 13009KT 12SM SCT023 27/23 A3001 RMK SLP164
T02680226=




000
SAZS31 NSTU 031852
MTRPPG
METAR NSTU 031850Z 12009KT 12SM SCT024 27/22 A3000 RMK SLP161
T02690221=




000
SAZS31 NSTU 031754
MTRPPG
METAR NSTU 031750Z 12010KT 12SM FEW023 SCT250 26/22 A2999 RMK SLP156
8/101 T02550217 10255 20252 52020=




000
SAZS31 NSTU 031653
MTRPPG
METAR NSTU 031651Z 12010KT 10SM FEW023 SCT080 25/22 A2996 RMK SLP146
T02530215=




000
SAZS31 NSTU 031557
MTRPPG
METAR NSTU 031555Z 11010KT 10SM FEW023 SCT080 25/22 A2994 RMK SLP139
T02530218=




000
SAZS31 NSTU 031453
MTRPPG
METAR NSTU 031450Z 11008KT 10SM FEW023 SCT080 BKN180 25/22 A2993 RMK
SLP135 8/171 T02520220 57017=




000
SAZS31 NSTU 031353
MTRPPG
METAR NSTU 031351Z 09008KT 10SM FEW023 SCT080 BKN180 25/22 A2994 RMK
SLP139 T02530219=




000
SAZS31 NSTU 031254
MTRPPG
METAR NSTU 031251Z 11010KT 10SM FEW023 BKN080 BKN180 26/22 A2995 RMK
SLP144 T02550221=




000
SAZS31 NSTU 031254
MTRPPG
METAR NSTU 031251Z 11010KT 10SM FEW023 BKN080 BKN180 26/22 A2995 RMK
SLP144 T02550221=




000
SAZS31 NSTU 031154
MTRPPG
METAR NSTU 031152Z 11010KT 10SM FEW023 SCT080 BKN180 26/22 A2998 RMK
SLP152 8/178 T02550218 10260 20255 57012=




000
SAZS31 NSTU 031154
MTRPPG
METAR NSTU 031152Z 11010KT 10SM FEW023 SCT080 BKN180 26/22 A2998 RMK
SLP152 8/178 T02550218 10260 20255 57012=




000
SAZS31 NSTU 031051
MTRPPG
METAR NSTU 031050Z 09010KT 10SM FEW023 BKN080 26/22 A2999 RMK SLP157
T02570222 403000247=




000
SAZS31 NSTU 030954
MTRPPG
METAR NSTU 030951Z 10012KT 10SM FEW023 SCT080 26/22 A3000 RMK SLP161
T02570221=





000
SAZS31 NSTU 030853
MTRPPG
METAR NSTU 030850Z 10009KT 10SM SCT023 26/22 A3001 RMK SLP164 6////
8/100 T02580218 53014=




000
SAZS31 NSTU 030753
MTRPPG
METAR NSTU 030750Z 10009KT 10SM SCT023 26/22 A3000 RMK SLP161
T02590220=





000
SAZS31 NSTU 030753
MTRPPG
METAR NSTU 030750Z 10009KT 10SM SCT023 26/22 A3000 RMK SLP161
T02590220=





000
SAZS31 NSTU 030653
MTRPPG
METAR NSTU 030650Z 09011KT 10SM SCT023 26/22 A2999 RMK SLP156
T02590215=




000
SAZS31 NSTU 030653
MTRPPG
METAR NSTU 030650Z 09011KT 10SM SCT023 26/22 A2999 RMK SLP156
T02590215=




000
SAZS31 NSTU 030554
MTRPPG
METAR NSTU 030550Z 09009KT 11SM FEW023 26/22 A2997 RMK SLP151 8/100
T02600218 10300 20260 53012=




000
SAZS31 NSTU 030554
MTRPPG
METAR NSTU 030550Z 09009KT 11SM FEW023 26/22 A2997 RMK SLP151 8/100
T02600218 10300 20260 53012=




000
SAZS31 NSTU 030452
MTRPPG
METAR NSTU 030450Z 10011KT 12SM FEW023 27/22 A2996 RMK SLP147
T02650218=




000
SAZS31 NSTU 030408
MTRPPG
METAR NSTU 030350Z 09012KT 12SM FEW023 27/22 A2995 RMK SLP142
T02700218=




000
SAZS31 NSTU 030256
MTRPPG
METAR NSTU 030251Z 10011KT 12SM FEW023 29/22 A2994 RMK SLP139 6////
8/100 T02860222 56012=





000
SAZS31 NSTU 030256
MTRPPG
METAR NSTU 030251Z 10011KT 12SM FEW023 29/22 A2994 RMK SLP139 6////
8/100 T02860222 56012=





000
SAZS31 NSTU 030154
MTRPPG
METAR NSTU 030150Z 10012KT 12SM FEW023 29/22 A2994 RMK SLP141
T02940224=




000
SAZS31 NSTU 030055
MTRPPG
METAR NSTU 030050Z 10013KT 12SM FEW023 30/22 A2996 RMK SLP146
T02990223=




000
SAZS31 NSTU 030004
MTRPPG
METAR NSTU 022350Z 10013KT 12SM FEW024 30/21 A2997 RMK SLP151 8/100
T03000214 10300 20251 56017=




000
SAZS31 NSTU 030004
MTRPPG
METAR NSTU 022350Z 10013KT 12SM FEW024 30/21 A2997 RMK SLP151 8/100
T03000214 10300 20251 56017=




000
SAZS31 NSTU 022319
MTRPPG
METAR NSTU 022250Z 10012KT 12SM FEW023 30/22 A3000 RMK SLP159
T02970219=




000
SAZS31 NSTU 022319
MTRPPG
METAR NSTU 022250Z 10012KT 12SM FEW023 30/22 A3000 RMK SLP159
T02970219=




000
SAZS31 NSTU 022153
MTRPPG
METAR NSTU 022150Z 10015KT 12SM FEW023 29/22 A3002 RMK SLP164
T02920219=




000
SAZS31 NSTU 022153
MTRPPG
METAR NSTU 022150Z 10015KT 12SM FEW023 29/22 A3002 RMK SLP164
T02920219=




000
SAZS31 NSTU 022058
MTRPPG
METAR NSTU 022050Z 11014KT 12SM FEW023 28/22 A3002 RMK SLP168 8/100 T02840218 52014=




000
SAZS31 NSTU 021953
MTRPPG
METAR NSTU 021950Z 11012KT 12SM FEW023 27/21 A3001 RMK SLP163
T02740213=




000
SAZS31 NSTU 021853
MTRPPG
METAR NSTU 021850Z 10013KT 12SM FEW024 26/21 A2999 RMK SLP157
T02630210=




000
SAZS31 NSTU 021852
MTRPPG
METAR NSTU 021750Z 10014KT 12SM SCT024 25/21 A2998 RMK SLP154 8/100
T02510209 10255 20247 52008=




000
SAZS31 NSTU 021654
MTRPPG
METAR NSTU 021650Z 10010KT 10SM FEW025 25/21 A2996 RMK SLP146
T02470209=




000
SAZS31 NSTU 021654
MTRPPG
METAR NSTU 021650Z 10010KT 10SM FEW025 25/21 A2996 RMK SLP146
T02470209=




000
SAZS31 NSTU 021557
MTRPPG
METAR NSTU 021550Z 11013KT 10SM FEW025 25/21 A2995 RMK SLP144
T02500207=





000
SAZS31 NSTU 021454
MTRPPG
METAR NSTU 021451Z 10012KT 10SM FEW025 SCT100 25/21 A2996 RMK SLP146
8/170 T02520208 57014=




000
SAZS31 NSTU 021454
MTRPPG
METAR NSTU 021451Z 10012KT 10SM FEW025 SCT100 25/21 A2996 RMK SLP146
8/170 T02520208 57014=




000
SAZS31 NSTU 021354
MTRPPG
METAR NSTU 021351Z 10014KT 10SM SCT025 BKN100 26/21 A2996 RMK SLP147
T02550209=




000
SAZS31 NSTU 021254
MTRPPG
METAR NSTU 021250Z 09014KT 10SM FEW025 SCT045 OVC100 25/21 A2998 RMK
SLP152 T02540207=




000
SAZS31 NSTU 021254
MTRPPG
METAR NSTU 021250Z 09014KT 10SM FEW025 SCT045 OVC100 25/21 A2998 RMK
SLP152 T02540207=




000
SAZS31 NSTU 021157
MTRPPG
METAR NSTU 021152Z 09015KT 10SM FEW025 BKN100 25/21 A3000 RMK SLP159
8/170 T02540210 10260 20250 57007=




000
SAZS31 NSTU 021157
MTRPPG
METAR NSTU 021152Z 09015KT 10SM FEW025 BKN100 25/21 A3000 RMK SLP159
8/170 T02540210 10260 20250 57007=




000
SAZS31 NSTU 021053
MTRPPG
METAR NSTU 021050Z 09015KT 10SM FEW025 SCT040 BKN100 26/21 A3002 RMK
SLP166 T02560210 402830245=




000
SAZS31 NSTU 020954
MTRPPG
METAR NSTU 020950Z 11015KT 10SM SCT023 BKN038 26/21 A3002 RMK SLP166
T02570214=




000
SAZS31 NSTU 020857
MTRPPG
METAR NSTU 020853Z 10016KT 10SM SCT023 BKN038 26/22 A3002 RMK SLP166
6//// 8/800 T02560219 53010=




000
SAZS31 NSTU 020753
MTRPPG
METAR NSTU 020750Z 10017KT 10SM SCT023 BKN038 26/22 A3001 RMK SLP164
T02560219=




000
SAZS31 NSTU 020753
MTRPPG
METAR NSTU 020750Z 10017KT 10SM SCT023 BKN038 26/22 A3001 RMK SLP164
T02560219=




000
SAZS31 NSTU 020555
MTRPPG
METAR NSTU 020550Z 11014KT 10SM SCT018 BKN038 25/21 A2999 RMK SLP156
8/800 T02530211 10275 20253 53012=




000
SAZS31 NSTU 020555
MTRPPG
METAR NSTU 020550Z 11014KT 10SM SCT018 BKN038 25/21 A2999 RMK SLP156
8/800 T02530211 10275 20253 53012=




000
SAZS31 NSTU 020453
MTRPPG
METAR NSTU 020450Z 11016KT 12SM SCT023 BKN038 26/21 A2997 RMK SLP151
T02570210=




000
SAZS31 NSTU 020353
MTRPPG
METAR NSTU 020350Z 11017KT 12SM SCT023 BKN038 26/21 A2996 RMK SLP147
T02610213=




000
SAZS31 NSTU 020254
MTRPPG
METAR NSTU 020250Z 11015KT 12SM SCT025 BKN040 27/21 A2995 RMK SLP144
6//// 8/800 T02660214 56017=




000
SAZS31 NSTU 020153
MTRPPG
METAR NSTU 020150Z 11016KT 12SM SCT025 BKN040 27/22 A2995 RMK SLP144
T02690216=




000
SAZS31 NSTU 020153
MTRPPG
METAR NSTU 020150Z 11016KT 12SM SCT025 BKN040 27/22 A2995 RMK SLP144
T02690216=




000
SAZS31 NSTU 020054
MTRPPG
METAR NSTU 020050Z 11015KT 12SM FEW025 SCT040 BKN100 27/22 A2998 RMK
SLP151 T02740221=




000
SAZS31 NSTU 012358
MTRPPG
METAR NSTU 012353Z 11018KT 12SM SCT025 BKN100 BKN180 28/21 A3000 RMK
SLP161 8/111 T02750213 10283 20252 57017=




000
SAZS31 NSTU 012252
MTRPPG
METAR NSTU 012250Z 12015KT 12SM FEW025 BKN100 BKN180 28/21 A3003 RMK
SLP169 T02780208=




000
SAZS31 NSTU 012154
MTRPPG
METAR NSTU 012151Z 12017KT 12SM FEW025 SCT100 BKN180 28/22 A3004 RMK
SLP173 T02830217=




000
SAZS31 NSTU 012154
MTRPPG
METAR NSTU 012151Z 12017KT 12SM FEW025 SCT100 BKN180 28/22 A3004 RMK
SLP173 T02830217=




000
SAZS31 NSTU 012054
MTRPPG
METAR NSTU 012050Z 12020KT 12SM FEW025 SCT040 BKN100 27/22 A3005 RMK
SLP178 8/450 T02660215 52015=




000
SAZS31 NSTU 012002
MTRPPG
METAR NSTU 011954Z 12018KT 12SM SCT025 BKN040 OVC100 26/21 A3004 RMK
SLP174 T02610214=




000
SAZS31 NSTU 011906
MTRPPG
METAR NSTU 011853Z 12018KT 12SM SCT021 BKN040 OVC100 25/21 A3003 RMK
SLP169 T02540214=




000
SAZS31 NSTU 011906
MTRPPG
METAR NSTU 011853Z 12018KT 12SM SCT021 BKN040 OVC100 25/21 A3003 RMK
SLP169 T02540214=




000
SAZS31 NSTU 011801
MTRPPG
METAR NSTU 011750Z 12020KT 12SM SCT021 BKN040 OVC100 25/21 A3001 RMK
SLP163 8/87/ T02520213 10253 20245 52012=




000
SAZS31 NSTU 011801
MTRPPG
METAR NSTU 011750Z 12020KT 12SM SCT021 BKN040 OVC100 25/21 A3001 RMK
SLP163 8/87/ T02520213 10253 20245 52012=




000
SAZS31 NSTU 011705
MTRPPG
METAR NSTU 011650Z 12019KT 12SM FEW025 BKN040 OVC100 25/22 A2999 RMK
SLP156 T02510215=





000
SAZS31 NSTU 011705
MTRPPG
METAR NSTU 011650Z 12019KT 12SM FEW025 BKN040 OVC100 25/22 A2999 RMK
SLP156 T02510215=





000
SAZS31 NSTU 011607
MTRPPG
METAR NSTU 011550Z 12020KT 10SM FEW025 SCT040 BKN100 25/22 A2998 RMK
SLP152 T02510215=




000
SAZS31 NSTU 011607
MTRPPG
METAR NSTU 011550Z 12020KT 10SM FEW025 SCT040 BKN100 25/22 A2998 RMK
SLP152 T02510215=




000
SAZS31 NSTU 011452
MTRPPG
METAR NSTU 011451Z 12018KT 10SM FEW025 SCT040 BKN100 25/22 A2997 RMK
SLP151 8/470 T02480215 57014=




000
SAZS31 NSTU 011452
MTRPPG
METAR NSTU 011451Z 12018KT 10SM FEW025 SCT040 BKN100 25/22 A2997 RMK
SLP151 8/470 T02480215 57014=




000
SAZS31 NSTU 011353
MTRPPG
METAR NSTU 011350Z 12017KT 10SM FEW025 SCT040 OVC100 25/22 A2999 RMK
SLP156 T02500215=




000
SAZS31 NSTU 011253
MTRPPG
METAR NSTU 011251Z 12016KT 10SM SCT025 OVC100 25/21 A3000 RMK SLP157
T02530208=




000
SAZS31 NSTU 011253
MTRPPG
METAR NSTU 011251Z 12016KT 10SM SCT025 OVC100 25/21 A3000 RMK SLP157
T02530208=




000
SAZS31 NSTU 011154
MTRPPG
METAR NSTU 011150Z 12012KT 10SM SCT025 OVC100 25/21 A3001 RMK SLP164
8/17/ T02520206 10260 20250 52002=




000
SAZS31 NSTU 011154
MTRPPG
METAR NSTU 011150Z 12012KT 10SM SCT025 OVC100 25/21 A3001 RMK SLP164
8/17/ T02520206 10260 20250 52002=




000
SAZS31 NSTU 011053
MTRPPG
METAR NSTU 011051Z 11014KT 10SM SCT025 BKN040 OVC100 25/21 A3002 RMK
SLP168 T02530207 402920242=




000
SAZS31 NSTU 010953
MTRPPG
METAR NSTU 010950Z 11016G20KT 10SM SCT030 BKN045 OVC100 25/21 A3002
RMK SLP166 T02530207=




000
SAZS31 NSTU 010855
MTRPPG
METAR NSTU 010853Z 12017KT 8SM SCT023 BKN040 OVC100 25/21 A3001 RMK
SLP163 8/47/ T02540210 51014=




000
SAZS31 NSTU 010855
MTRPPG
METAR NSTU 010853Z 12017KT 8SM SCT023 BKN040 OVC100 25/21 A3001 RMK
SLP163 8/47/ T02540210 51014=




000
SAZS31 NSTU 010752
MTRPPG
METAR NSTU 010750Z 11016KT 8SM SCT023 BKN040 OVC100 25/21 A3000 RMK
SLP161 T02540209=




000
SAZS31 NSTU 010655
MTRPPG
METAR NSTU 010652Z 11018KT 10SM FEW023 SCT040 OVC100 25/21 A2998 RMK
SLP154 T02530209=




000
SAZS31 NSTU 010655
MTRPPG
METAR NSTU 010652Z 11018KT 10SM FEW023 SCT040 OVC100 25/21 A2998 RMK
SLP154 T02530209=




000
SAZS31 NSTU 010554
MTRPPG
METAR NSTU 010550Z 12017KT 10SM FEW023 SCT040 OVC100 26/21 A2997 RMK
SLP149 8/42/ T02550213 10271 20255 53012=




000
SAZS31 NSTU 010554
MTRPPG
METAR NSTU 010550Z 12017KT 10SM FEW023 SCT040 OVC100 26/21 A2997 RMK
SLP149 8/42/ T02550213 10271 20255 53012=




000
SAZS31 NSTU 010457
MTRPPG
METAR NSTU 010450Z 12017G23KT 11SM FEW023 SCT040 OVC100 26/21 A2995
RMK SLP144 T02550209=




000
SAZS31 NSTU 010457
MTRPPG
METAR NSTU 010450Z 12017G23KT 11SM FEW023 SCT040 OVC100 26/21 A2995
RMK SLP144 T02550209=




000
SAZS31 NSTU 010452
MTRPPG
METAR NSTU 010351Z 12019KT 11SM SCT023 BKN040 OVC100 26/21 A2994 RMK
SLP139 T02570208=




000
SAZS31 NSTU 010353
MTRPPG
METAR NSTU 010351Z 12019KT 11SM SCT023 BKN040 OVC100 26/21 A2994 RMK
SLP139 T02570208=




000
SAZS31 NSTU 010301
MTRPPG
METAR NSTU 010253Z 12015KT 11SM SCT028 BKN040 OVC100 26/21 A2993 RMK
SLP137 8/42/ T02610205 56014=




000
SAZS31 NSTU 010301
MTRPPG
METAR NSTU 010253Z 12015KT 11SM SCT028 BKN040 OVC100 26/21 A2993 RMK
SLP137 8/42/ T02610205 56014=




000
SAZS31 NSTU 010152
MTRPPG
METAR NSTU 010150Z 12017KT 11SM FEW028 SCT040 BKN100 26/21 A2994 RMK
SLP141 T02620206=




000
SAZS31 NSTU 010152
MTRPPG
METAR NSTU 010150Z 12017KT 11SM FEW028 SCT040 BKN100 26/21 A2994 RMK
SLP141 T02620206=




000
SAZS31 NSTU 010055
MTRPPG
METAR NSTU 010053Z 12014KT 11SM FEW028 SCT040 BKN100 27/21 A2995 RMK
SLP144 T02710209=




000
SAZS31 NSTU 312355
MTRPPG
METAR NSTU 312352Z 12017KT 11SM FEW028 BKN040 OVC100 27/21 A2997 RMK
SLP151 8/41/ T02700209 10270 20245 57015=




000
SAZS31 NSTU 312253
MTRPPG
METAR NSTU 312252Z 11017G21KT 11SM FEW028 BKN040 OVC100 27/20 A2999
RMK SLP157 T02650202=




000
SAZS31 NSTU 312153
MTRPPG
METAR NSTU 312150Z 13015KT 12SM FEW028 BKN040 OVC100 26/21 A3001 RMK
SLP163 T02640205=




    US Dept of Commerce
    National Oceanic and Atmospheric Administration
    National Weather Service
    1325 East West Highway
    Silver Spring, MD 20910
    Page Author: NWS Internet Services Team
Disclaimer
Information Quality
Credits
Glossary
Privacy Policy
Freedom of Information Act (FOIA)
About Us
Career Opportunities